Flight Track Log - Related Links

Times and Time Zones

All times are in EDT time to prevent confusion due to time zone crossing. See the PDT4147 flight status page for this flight to view local times or setup timezone preferences in your user account.

Time Position Orientation Groundspeed Altitude Reporting Facility
EDT Latitude Longitude Course Direction KTS MPH feet Rate Location/Type
Fri 03:11:04 PM 35.2328 -80.9392 71° East 143 165 1,400  Level Atlanta Center
Fri 03:11:46 PM 35.2467 -80.9133 57° Northeast 156 180 2,200 1,500 Climbing Atlanta Center
Fri 03:12:48 PM 35.2306 -80.8606 110° East 169 194 4,000 1,366 Climbing Atlanta Center
Fri 03:13:00 PM 35.2873 -80.6400 64° Northeast  Level FlightAware Approximate
Fri 03:13:49 PM 35.2103 -80.8028 113° Southeast 173 199 5,000  Level Atlanta Center
Fri 03:14:00 PM 35.3232 -80.5434 71° East  Level FlightAware Approximate
Fri 03:14:44 PM 35.2067 -80.7444 94° East 198 228 5,900  Level Atlanta Center
Fri 03:15:00 PM 35.3515 -80.4428 71° East  Level FlightAware Approximate
Fri 03:15:51 PM 35.2131 -80.6731 84° East 182 209 7,000  Level Atlanta Center
Fri 03:16:00 PM 35.3797 -80.3422 71° East  Level FlightAware Approximate
Fri 03:16:53 PM 35.2197 -80.6067 83° East 203 234 7,000  Level Atlanta Center
Fri 03:17:54 PM 35.2386 -80.5422 70° East 211 243 8,000 934 Climbing Atlanta Center
Fri 03:18:55 PM 35.2683 -80.4850 58° Northeast 191 220 8,900 469 Climbing Atlanta Center
Fri 03:20:02 PM 35.3039 -80.4175 57° Northeast 212 244 9,000 90 Climbing Atlanta Center
Fri 03:22:00 PM 35.3910 -80.2377 59° Northeast  Level FlightAware Approximate
Fri 03:29:00 PM 35.9346 -80.0631 North  Level FlightAware Approximate
Fri 03:30:00 PM 36.0212 -80.0565 North  Level FlightAware Approximate
Fri 03:31:00 PM 36.1078 -80.0498 North  Level FlightAware Approximate
Fri 03:32:00 PM 36.1943 -80.0432 North  Level FlightAware Approximate
Fri 03:33:00 PM 36.2809 -80.0365 North  Level FlightAware Approximate
Fri 03:34:00 PM 36.3675 -80.0298 North  Level FlightAware Approximate
Fri 03:35:00 PM 36.4541 -80.0231 North  Level FlightAware Approximate
Fri 03:36:00 PM 36.5407 -80.0163 North  Level FlightAware Approximate
Fri 03:37:00 PM 36.6272 -80.0096 North  Level FlightAware Approximate
Fri 03:38:00 PM 36.7138 -80.0028 North  Level FlightAware Approximate
Fri 03:39:00 PM 36.8005 -80.0000 North  Level FlightAware Approximate
Fri 03:40:00 PM 36.8872 -80.0000 North  Level FlightAware Approximate
Fri 03:41:00 PM 36.9726 -79.9869 15° North  Level FlightAware Approximate
Fri 03:42:00 PM 37.0590 -79.9833 North  Level FlightAware Approximate
Fri 03:43:00 PM 37.1457 -79.9833 North  Level FlightAware Approximate
Fri 03:44:00 PM 37.2318 -79.9736 North  Level FlightAware Approximate
Fri 03:45:00 PM 37.3167 -79.9667 North  Level FlightAware Approximate
Fri 03:46:00 PM 37.3255 -79.9754 North  Level Estimated
Fri 03:47:00 PM 37.3255 -79.9754 North  Level Estimated
Fri 03:48:00 PM 37.3255 -79.9754 North  Level Estimated
Fri 03:49:00 PM 37.3255 -79.9754 North  Level Estimated
Fri 03:50:00 PM 37.3255 -79.9754 North  Level Estimated
Fri 03:51:00 PM 37.3255 -79.9754 North  Level Estimated
Fri 03:52:00 PM 37.3255 -79.9754 North  Level Estimated
Fri 03:53:00 PM 37.3255 -79.9754 North  Level Estimated
Fri 03:54:00 PM 37.3255 -79.9754 North  Level Estimated

Login

Don't have an account? Register now (free) for customized features, flight alerts, and more!